sensor_id;sensor_type;location;lat;lon;timestamp;P1;durP1;ratioP1;P2;durP2;ratioP2
39214;SDS011;24932;51.746;14.334;2022-12-18T00:00:40;61.23;;;16.07;;
39214;SDS011;24932;51.746;14.334;2022-12-18T00:04:40;60.83;;;18.2;;
39214;SDS011;24932;51.746;14.334;2022-12-18T00:08:41;72.8;;;18.33;;
39214;SDS011;24932;51.746;14.334;2022-12-18T00:12:40;69.9;;;19.27;;
39214;SDS011;24932;51.746;14.334;2022-12-18T00:16:42;71.83;;;18.67;;
39214;SDS011;24932;51.746;14.334;2022-12-18T00:20:40;72.4;;;20.87;;
39214;SDS011;24932;51.746;14.334;2022-12-18T00:24:40;45.6;;;13.5;;
39214;SDS011;24932;51.746;14.334;2022-12-18T00:28:40;64.37;;;19.03;;
39214;SDS011;24932;51.746;14.334;2022-12-18T00:32:40;75.13;;;18.87;;
39214;SDS011;24932;51.746;14.334;2022-12-18T00:36:40;64.93;;;17.33;;
39214;SDS011;24932;51.746;14.334;2022-12-18T00:40:40;60.9;;;18.47;;
39214;SDS011;24932;51.746;14.334;2022-12-18T00:44:40;58.57;;;16.17;;
39214;SDS011;24932;51.746;14.334;2022-12-18T00:48:40;67.7;;;19.07;;
39214;SDS011;24932;51.746;14.334;2022-12-18T00:52:40;70.4;;;17.73;;
39214;SDS011;24932;51.746;14.334;2022-12-18T00:56:48;60.3;;;16.47;;
39214;SDS011;24932;51.746;14.334;2022-12-18T01:00:40;61.87;;;18.73;;
39214;SDS011;24932;51.746;14.334;2022-12-18T01:04:40;52.77;;;15.77;;
39214;SDS011;24932;51.746;14.334;2022-12-18T01:08:40;60.5;;;18.4;;
39214;SDS011;24932;51.746;14.334;2022-12-18T01:12:41;60.2;;;14.77;;
39214;SDS011;24932;51.746;14.334;2022-12-18T01:16:40;52.6;;;16.0;;
39214;SDS011;24932;51.746;14.334;2022-12-18T01:20:39;54.97;;;13.7;;
39214;SDS011;24932;51.746;14.334;2022-12-18T01:24:40;50.43;;;15.7;;
39214;SDS011;24932;51.746;14.334;2022-12-18T01:28:41;59.53;;;18.1;;
39214;SDS011;24932;51.746;14.334;2022-12-18T01:32:40;57.03;;;14.83;;
39214;SDS011;24932;51.746;14.334;2022-12-18T01:36:40;56.7;;;18.73;;
39214;SDS011;24932;51.746;14.334;2022-12-18T01:40:40;49.87;;;12.0;;
39214;SDS011;24932;51.746;14.334;2022-12-18T01:45:46;38.57;;;12.07;;
39214;SDS011;24932;51.746;14.334;2022-12-18T01:48:40;50.8;;;14.9;;
39214;SDS011;24932;51.746;14.334;2022-12-18T01:52:41;51.03;;;14.5;;
39214;SDS011;24932;51.746;14.334;2022-12-18T01:56:40;59.57;;;17.03;;
39214;SDS011;24932;51.746;14.334;2022-12-18T02:00:40;52.6;;;16.87;;
39214;SDS011;24932;51.746;14.334;2022-12-18T02:04:46;53.23;;;16.13;;
39214;SDS011;24932;51.746;14.334;2022-12-18T02:08:41;52.97;;;15.63;;
39214;SDS011;24932;51.746;14.334;2022-12-18T02:12:42;55.93;;;15.37;;
39214;SDS011;24932;51.746;14.334;2022-12-18T02:16:42;52.5;;;16.97;;
39214;SDS011;24932;51.746;14.334;2022-12-18T02:20:42;58.03;;;16.2;;
39214;SDS011;24932;51.746;14.334;2022-12-18T02:24:42;58.77;;;16.53;;
39214;SDS011;24932;51.746;14.334;2022-12-18T02:28:41;68.97;;;16.6;;
39214;SDS011;24932;51.746;14.334;2022-12-18T02:32:42;58.63;;;17.13;;
39214;SDS011;24932;51.746;14.334;2022-12-18T02:36:40;61.87;;;16.8;;
39214;SDS011;24932;51.746;14.334;2022-12-18T02:40:40;54.0;;;15.4;;
39214;SDS011;24932;51.746;14.334;2022-12-18T02:44:41;54.7;;;15.07;;
39214;SDS011;24932;51.746;14.334;2022-12-18T02:48:40;63.47;;;15.9;;
39214;SDS011;24932;51.746;14.334;2022-12-18T02:52:42;58.6;;;17.67;;
39214;SDS011;24932;51.746;14.334;2022-12-18T02:56:42;56.13;;;17.67;;
39214;SDS011;24932;51.746;14.334;2022-12-18T03:00:41;59.6;;;18.57;;
39214;SDS011;24932;51.746;14.334;2022-12-18T03:04:42;56.9;;;15.43;;
39214;SDS011;24932;51.746;14.334;2022-12-18T03:08:41;63.13;;;18.7;;
39214;SDS011;24932;51.746;14.334;2022-12-18T03:12:42;68.07;;;17.23;;
39214;SDS011;24932;51.746;14.334;2022-12-18T03:16:40;75.03;;;20.63;;
39214;SDS011;24932;51.746;14.334;2022-12-18T03:20:40;60.03;;;19.13;;
39214;SDS011;24932;51.746;14.334;2022-12-18T03:24:40;65.0;;;17.97;;
39214;SDS011;24932;51.746;14.334;2022-12-18T03:28:42;57.8;;;19.03;;
39214;SDS011;24932;51.746;14.334;2022-12-18T03:32:42;57.23;;;18.73;;
39214;SDS011;24932;51.746;14.334;2022-12-18T03:36:39;53.8;;;17.2;;
39214;SDS011;24932;51.746;14.334;2022-12-18T03:40:43;60.53;;;16.57;;
39214;SDS011;24932;51.746;14.334;2022-12-18T03:44:41;51.8;;;15.83;;
39214;SDS011;24932;51.746;14.334;2022-12-18T03:48:41;49.4;;;15.17;;
39214;SDS011;24932;51.746;14.334;2022-12-18T03:52:41;57.4;;;16.07;;
39214;SDS011;24932;51.746;14.334;2022-12-18T03:56:42;52.7;;;17.73;;
39214;SDS011;24932;51.746;14.334;2022-12-18T04:00:40;52.8;;;15.53;;
39214;SDS011;24932;51.746;14.334;2022-12-18T04:04:40;47.9;;;15.5;;
39214;SDS011;24932;51.746;14.334;2022-12-18T04:08:40;51.5;;;15.53;;
39214;SDS011;24932;51.746;14.334;2022-12-18T04:12:40;48.67;;;14.93;;
39214;SDS011;24932;51.746;14.334;2022-12-18T04:16:40;48.07;;;12.63;;
39214;SDS011;24932;51.746;14.334;2022-12-18T04:20:40;51.97;;;13.7;;
39214;SDS011;24932;51.746;14.334;2022-12-18T04:24:40;40.0;;;12.77;;
39214;SDS011;24932;51.746;14.334;2022-12-18T04:28:40;38.87;;;12.57;;
39214;SDS011;24932;51.746;14.334;2022-12-18T04:32:40;53.57;;;13.4;;
39214;SDS011;24932;51.746;14.334;2022-12-18T04:36:40;50.6;;;14.0;;
39214;SDS011;24932;51.746;14.334;2022-12-18T04:40:42;42.17;;;12.93;;
39214;SDS011;24932;51.746;14.334;2022-12-18T04:44:40;59.53;;;16.93;;
39214;SDS011;24932;51.746;14.334;2022-12-18T04:48:40;48.93;;;14.57;;
39214;SDS011;24932;51.746;14.334;2022-12-18T04:52:40;47.2;;;14.1;;
39214;SDS011;24932;51.746;14.334;2022-12-18T04:56:40;58.9;;;16.57;;
39214;SDS011;24932;51.746;14.334;2022-12-18T05:00:40;49.93;;;14.43;;
39214;SDS011;24932;51.746;14.334;2022-12-18T05:04:40;49.47;;;16.5;;
39214;SDS011;24932;51.746;14.334;2022-12-18T05:08:41;43.4;;;14.67;;
39214;SDS011;24932;51.746;14.334;2022-12-18T05:12:40;46.87;;;15.8;;
39214;SDS011;24932;51.746;14.334;2022-12-18T05:16:40;52.2;;;15.5;;
39214;SDS011;24932;51.746;14.334;2022-12-18T05:20:40;59.73;;;18.4;;
39214;SDS011;24932;51.746;14.334;2022-12-18T05:24:41;46.43;;;15.27;;
39214;SDS011;24932;51.746;14.334;2022-12-18T05:28:40;58.2;;;16.13;;
39214;SDS011;24932;51.746;14.334;2022-12-18T05:32:40;59.67;;;17.53;;
39214;SDS011;24932;51.746;14.334;2022-12-18T05:36:40;53.33;;;16.4;;
39214;SDS011;24932;51.746;14.334;2022-12-18T05:40:41;64.43;;;16.93;;
39214;SDS011;24932;51.746;14.334;2022-12-18T05:44:40;48.47;;;16.43;;
39214;SDS011;24932;51.746;14.334;2022-12-18T05:48:40;58.63;;;16.47;;
39214;SDS011;24932;51.746;14.334;2022-12-18T05:52:40;54.63;;;16.9;;
39214;SDS011;24932;51.746;14.334;2022-12-18T05:56:48;46.77;;;15.6;;
39214;SDS011;24932;51.746;14.334;2022-12-18T06:00:41;53.27;;;18.03;;
39214;SDS011;24932;51.746;14.334;2022-12-18T06:04:41;47.97;;;17.1;;
39214;SDS011;24932;51.746;14.334;2022-12-18T06:08:46;52.97;;;18.67;;
39214;SDS011;24932;51.746;14.334;2022-12-18T06:12:42;46.43;;;14.73;;
39214;SDS011;24932;51.746;14.334;2022-12-18T06:16:40;49.3;;;17.83;;
39214;SDS011;24932;51.746;14.334;2022-12-18T06:20:41;61.23;;;18.33;;
39214;SDS011;24932;51.746;14.334;2022-12-18T06:24:40;46.47;;;17.7;;
39214;SDS011;24932;51.746;14.334;2022-12-18T06:28:41;60.9;;;17.9;;
39214;SDS011;24932;51.746;14.334;2022-12-18T06:32:40;53.8;;;19.63;;
39214;SDS011;24932;51.746;14.334;2022-12-18T06:36:40;55.83;;;18.2;;
39214;SDS011;24932;51.746;14.334;2022-12-18T06:40:40;42.1;;;16.33;;
39214;SDS011;24932;51.746;14.334;2022-12-18T06:44:40;41.57;;;16.07;;
39214;SDS011;24932;51.746;14.334;2022-12-18T06:48:40;47.37;;;16.7;;
39214;SDS011;24932;51.746;14.334;2022-12-18T06:52:40;63.47;;;18.1;;
39214;SDS011;24932;51.746;14.334;2022-12-18T06:56:40;51.0;;;15.53;;
39214;SDS011;24932;51.746;14.334;2022-12-18T07:00:39;48.5;;;15.53;;
39214;SDS011;24932;51.746;14.334;2022-12-18T07:04:40;48.1;;;17.37;;
39214;SDS011;24932;51.746;14.334;2022-12-18T07:08:40;51.17;;;16.37;;
39214;SDS011;24932;51.746;14.334;2022-12-18T07:12:40;44.9;;;15.67;;
39214;SDS011;24932;51.746;14.334;2022-12-18T07:16:40;43.1;;;15.03;;
39214;SDS011;24932;51.746;14.334;2022-12-18T07:20:39;49.3;;;16.03;;
39214;SDS011;24932;51.746;14.334;2022-12-18T07:24:40;51.7;;;15.83;;
39214;SDS011;24932;51.746;14.334;2022-12-18T07:28:40;46.97;;;16.6;;
39214;SDS011;24932;51.746;14.334;2022-12-18T07:32:40;51.53;;;17.13;;
39214;SDS011;24932;51.746;14.334;2022-12-18T07:36:39;53.3;;;15.63;;
39214;SDS011;24932;51.746;14.334;2022-12-18T07:40:40;43.8;;;16.23;;
39214;SDS011;24932;51.746;14.334;2022-12-18T07:44:41;43.83;;;15.33;;
39214;SDS011;24932;51.746;14.334;2022-12-18T07:48:40;48.07;;;18.0;;
39214;SDS011;24932;51.746;14.334;2022-12-18T07:52:40;41.2;;;15.3;;
39214;SDS011;24932;51.746;14.334;2022-12-18T07:56:40;36.6;;;15.47;;
39214;SDS011;24932;51.746;14.334;2022-12-18T08:00:41;36.33;;;16.07;;
39214;SDS011;24932;51.746;14.334;2022-12-18T08:04:40;45.7;;;17.93;;
39214;SDS011;24932;51.746;14.334;2022-12-18T08:08:40;38.27;;;15.3;;
39214;SDS011;24932;51.746;14.334;2022-12-18T08:12:40;37.17;;;15.4;;
39214;SDS011;24932;51.746;14.334;2022-12-18T08:16:40;38.43;;;16.53;;
39214;SDS011;24932;51.746;14.334;2022-12-18T08:20:41;39.57;;;15.47;;
39214;SDS011;24932;51.746;14.334;2022-12-18T08:24:40;40.7;;;15.7;;
39214;SDS011;24932;51.746;14.334;2022-12-18T08:28:40;37.87;;;14.37;;
39214;SDS011;24932;51.746;14.334;2022-12-18T08:32:40;35.3;;;13.2;;
39214;SDS011;24932;51.746;14.334;2022-12-18T08:36:40;36.67;;;15.1;;
39214;SDS011;24932;51.746;14.334;2022-12-18T08:40:39;34.73;;;11.93;;
39214;SDS011;24932;51.746;14.334;2022-12-18T08:44:40;26.23;;;12.63;;
39214;SDS011;24932;51.746;14.334;2022-12-18T08:48:40;28.67;;;12.87;;
39214;SDS011;24932;51.746;14.334;2022-12-18T08:52:40;31.5;;;13.1;;
39214;SDS011;24932;51.746;14.334;2022-12-18T08:56:40;30.03;;;13.03;;
39214;SDS011;24932;51.746;14.334;2022-12-18T09:00:39;34.03;;;14.53;;
39214;SDS011;24932;51.746;14.334;2022-12-18T09:04:41;31.33;;;14.2;;
39214;SDS011;24932;51.746;14.334;2022-12-18T09:08:41;30.8;;;12.73;;
39214;SDS011;24932;51.746;14.334;2022-12-18T09:12:40;28.9;;;13.53;;
39214;SDS011;24932;51.746;14.334;2022-12-18T09:16:40;30.77;;;11.93;;
39214;SDS011;24932;51.746;14.334;2022-12-18T09:20:39;35.63;;;14.43;;
39214;SDS011;24932;51.746;14.334;2022-12-18T09:24:40;31.93;;;12.67;;
39214;SDS011;24932;51.746;14.334;2022-12-18T09:28:41;35.13;;;13.57;;
39214;SDS011;24932;51.746;14.334;2022-12-18T09:32:40;26.47;;;11.0;;
39214;SDS011;24932;51.746;14.334;2022-12-18T09:36:40;24.57;;;10.43;;
39214;SDS011;24932;51.746;14.334;2022-12-18T09:40:41;31.07;;;11.17;;
39214;SDS011;24932;51.746;14.334;2022-12-18T09:44:47;31.77;;;11.97;;
39214;SDS011;24932;51.746;14.334;2022-12-18T09:48:42;26.3;;;11.77;;
39214;SDS011;24932;51.746;14.334;2022-12-18T09:52:41;23.13;;;11.1;;
39214;SDS011;24932;51.746;14.334;2022-12-18T09:56:41;26.2;;;12.2;;
39214;SDS011;24932;51.746;14.334;2022-12-18T10:00:42;22.7;;;11.03;;
39214;SDS011;24932;51.746;14.334;2022-12-18T10:04:40;27.13;;;12.03;;
39214;SDS011;24932;51.746;14.334;2022-12-18T10:08:42;25.7;;;12.27;;
39214;SDS011;24932;51.746;14.334;2022-12-18T10:12:42;26.77;;;10.77;;
39214;SDS011;24932;51.746;14.334;2022-12-18T10:16:42;32.8;;;12.17;;
39214;SDS011;24932;51.746;14.334;2022-12-18T10:20:41;30.8;;;11.9;;
39214;SDS011;24932;51.746;14.334;2022-12-18T10:24:42;28.43;;;12.5;;
39214;SDS011;24932;51.746;14.334;2022-12-18T10:28:41;29.83;;;12.33;;
39214;SDS011;24932;51.746;14.334;2022-12-18T10:32:40;26.77;;;12.73;;
39214;SDS011;24932;51.746;14.334;2022-12-18T10:36:40;25.83;;;11.43;;
39214;SDS011;24932;51.746;14.334;2022-12-18T10:40:47;25.27;;;12.17;;
39214;SDS011;24932;51.746;14.334;2022-12-18T10:44:40;28.07;;;12.23;;
39214;SDS011;24932;51.746;14.334;2022-12-18T10:48:47;28.2;;;12.9;;
39214;SDS011;24932;51.746;14.334;2022-12-18T10:52:53;26.13;;;11.4;;
39214;SDS011;24932;51.746;14.334;2022-12-18T10:56:42;26.3;;;12.1;;
39214;SDS011;24932;51.746;14.334;2022-12-18T11:00:39;36.67;;;11.87;;
39214;SDS011;24932;51.746;14.334;2022-12-18T11:04:49;30.33;;;10.77;;
39214;SDS011;24932;51.746;14.334;2022-12-18T11:08:42;24.53;;;11.17;;
39214;SDS011;24932;51.746;14.334;2022-12-18T11:12:40;24.3;;;11.13;;
39214;SDS011;24932;51.746;14.334;2022-12-18T11:16:43;25.2;;;10.83;;
39214;SDS011;24932;51.746;14.334;2022-12-18T11:20:40;21.23;;;11.13;;
39214;SDS011;24932;51.746;14.334;2022-12-18T11:24:40;26.93;;;12.13;;
39214;SDS011;24932;51.746;14.334;2022-12-18T11:28:43;27.2;;;14.33;;
39214;SDS011;24932;51.746;14.334;2022-12-18T11:32:40;31.23;;;12.3;;
39214;SDS011;24932;51.746;14.334;2022-12-18T11:36:41;29.47;;;11.93;;
39214;SDS011;24932;51.746;14.334;2022-12-18T11:40:42;35.37;;;10.4;;
39214;SDS011;24932;51.746;14.334;2022-12-18T11:44:42;23.07;;;11.63;;
39214;SDS011;24932;51.746;14.334;2022-12-18T11:48:43;19.5;;;10.13;;
39214;SDS011;24932;51.746;14.334;2022-12-18T11:52:41;26.93;;;11.57;;
39214;SDS011;24932;51.746;14.334;2022-12-18T11:56:42;22.1;;;11.07;;
39214;SDS011;24932;51.746;14.334;2022-12-18T12:00:40;22.5;;;9.93;;
39214;SDS011;24932;51.746;14.334;2022-12-18T12:04:44;31.43;;;12.2;;
39214;SDS011;24932;51.746;14.334;2022-12-18T12:08:45;20.17;;;10.03;;
39214;SDS011;24932;51.746;14.334;2022-12-18T12:12:52;25.2;;;11.97;;
39214;SDS011;24932;51.746;14.334;2022-12-18T12:16:42;33.63;;;14.1;;
39214;SDS011;24932;51.746;14.334;2022-12-18T12:20:42;29.6;;;12.5;;
39214;SDS011;24932;51.746;14.334;2022-12-18T12:24:44;31.7;;;13.73;;
39214;SDS011;24932;51.746;14.334;2022-12-18T12:28:47;31.3;;;12.93;;
39214;SDS011;24932;51.746;14.334;2022-12-18T12:32:45;21.83;;;12.1;;
39214;SDS011;24932;51.746;14.334;2022-12-18T12:36:44;29.6;;;12.57;;
39214;SDS011;24932;51.746;14.334;2022-12-18T12:40:58;30.93;;;13.07;;
39214;SDS011;24932;51.746;14.334;2022-12-18T12:44:42;25.6;;;12.43;;
39214;SDS011;24932;51.746;14.334;2022-12-18T12:48:43;28.63;;;13.0;;
39214;SDS011;24932;51.746;14.334;2022-12-18T12:52:42;26.27;;;11.93;;
39214;SDS011;24932;51.746;14.334;2022-12-18T12:56:42;31.23;;;13.7;;
39214;SDS011;24932;51.746;14.334;2022-12-18T13:04:41;27.63;;;11.37;;
39214;SDS011;24932;51.746;14.334;2022-12-18T13:08:52;27.77;;;11.97;;
39214;SDS011;24932;51.746;14.334;2022-12-18T13:12:51;26.7;;;12.83;;
39214;SDS011;24932;51.746;14.334;2022-12-18T13:16:40;33.73;;;13.73;;
39214;SDS011;24932;51.746;14.334;2022-12-18T13:20:41;29.07;;;13.63;;
39214;SDS011;24932;51.746;14.334;2022-12-18T13:24:40;32.63;;;14.57;;
39214;SDS011;24932;51.746;14.334;2022-12-18T13:28:56;26.83;;;13.17;;
39214;SDS011;24932;51.746;14.334;2022-12-18T13:32:40;30.53;;;13.1;;
39214;SDS011;24932;51.746;14.334;2022-12-18T13:36:41;33.93;;;13.43;;
39214;SDS011;24932;51.746;14.334;2022-12-18T13:44:41;32.23;;;15.17;;
39214;SDS011;24932;51.746;14.334;2022-12-18T13:48:39;35.37;;;14.97;;
39214;SDS011;24932;51.746;14.334;2022-12-18T13:52:41;30.2;;;13.17;;
39214;SDS011;24932;51.746;14.334;2022-12-18T13:56:42;31.73;;;14.33;;
39214;SDS011;24932;51.746;14.334;2022-12-18T14:00:41;41.97;;;14.73;;
39214;SDS011;24932;51.746;14.334;2022-12-18T14:04:41;30.17;;;13.53;;
39214;SDS011;24932;51.746;14.334;2022-12-18T14:08:41;39.03;;;12.83;;
39214;SDS011;24932;51.746;14.334;2022-12-18T14:12:40;30.4;;;13.4;;
39214;SDS011;24932;51.746;14.334;2022-12-18T14:16:42;34.63;;;15.4;;
39214;SDS011;24932;51.746;14.334;2022-12-18T14:20:43;34.87;;;14.03;;
39214;SDS011;24932;51.746;14.334;2022-12-18T14:24:41;40.03;;;13.97;;
39214;SDS011;24932;51.746;14.334;2022-12-18T14:28:42;35.93;;;13.5;;
39214;SDS011;24932;51.746;14.334;2022-12-18T14:32:40;31.73;;;14.5;;
39214;SDS011;24932;51.746;14.334;2022-12-18T14:36:41;28.73;;;12.87;;
39214;SDS011;24932;51.746;14.334;2022-12-18T14:40:42;32.73;;;15.07;;
39214;SDS011;24932;51.746;14.334;2022-12-18T14:45:45;39.03;;;15.77;;
39214;SDS011;24932;51.746;14.334;2022-12-18T14:48:41;40.67;;;15.33;;
39214;SDS011;24932;51.746;14.334;2022-12-18T14:52:40;38.53;;;15.8;;
39214;SDS011;24932;51.746;14.334;2022-12-18T14:56:42;33.9;;;13.87;;
39214;SDS011;24932;51.746;14.334;2022-12-18T15:00:41;39.77;;;14.83;;
39214;SDS011;24932;51.746;14.334;2022-12-18T15:04:44;36.53;;;13.43;;
39214;SDS011;24932;51.746;14.334;2022-12-18T15:08:39;52.93;;;16.67;;
39214;SDS011;24932;51.746;14.334;2022-12-18T15:12:41;38.73;;;16.3;;
39214;SDS011;24932;51.746;14.334;2022-12-18T15:16:49;35.27;;;14.8;;
39214;SDS011;24932;51.746;14.334;2022-12-18T15:20:41;47.07;;;17.57;;
39214;SDS011;24932;51.746;14.334;2022-12-18T15:24:40;41.2;;;15.67;;
39214;SDS011;24932;51.746;14.334;2022-12-18T15:28:43;45.83;;;16.27;;
39214;SDS011;24932;51.746;14.334;2022-12-18T15:32:41;47.73;;;17.17;;
39214;SDS011;24932;51.746;14.334;2022-12-18T15:36:40;44.8;;;17.1;;
39214;SDS011;24932;51.746;14.334;2022-12-18T15:40:41;48.47;;;18.13;;
39214;SDS011;24932;51.746;14.334;2022-12-18T15:44:40;54.33;;;17.63;;
39214;SDS011;24932;51.746;14.334;2022-12-18T15:48:41;56.57;;;18.7;;
39214;SDS011;24932;51.746;14.334;2022-12-18T15:52:41;52.3;;;18.93;;
39214;SDS011;24932;51.746;14.334;2022-12-18T15:56:40;46.8;;;17.33;;
39214;SDS011;24932;51.746;14.334;2022-12-18T16:00:40;53.3;;;17.6;;
39214;SDS011;24932;51.746;14.334;2022-12-18T16:04:42;46.1;;;18.53;;
39214;SDS011;24932;51.746;14.334;2022-12-18T16:08:41;46.7;;;14.9;;
39214;SDS011;24932;51.746;14.334;2022-12-18T16:12:40;48.47;;;17.97;;
39214;SDS011;24932;51.746;14.334;2022-12-18T16:16:40;48.73;;;16.63;;
39214;SDS011;24932;51.746;14.334;2022-12-18T16:20:40;47.8;;;17.5;;
39214;SDS011;24932;51.746;14.334;2022-12-18T16:24:39;52.43;;;17.73;;
39214;SDS011;24932;51.746;14.334;2022-12-18T16:28:48;59.0;;;17.9;;
39214;SDS011;24932;51.746;14.334;2022-12-18T16:32:40;76.23;;;25.03;;
39214;SDS011;24932;51.746;14.334;2022-12-18T16:36:40;48.57;;;18.93;;
39214;SDS011;24932;51.746;14.334;2022-12-18T16:40:40;52.33;;;17.67;;
39214;SDS011;24932;51.746;14.334;2022-12-18T16:44:40;43.67;;;17.37;;
39214;SDS011;24932;51.746;14.334;2022-12-18T16:48:40;52.4;;;16.93;;
39214;SDS011;24932;51.746;14.334;2022-12-18T16:52:40;59.1;;;19.7;;
39214;SDS011;24932;51.746;14.334;2022-12-18T16:56:40;50.7;;;17.43;;
39214;SDS011;24932;51.746;14.334;2022-12-18T17:00:40;48.2;;;18.67;;
39214;SDS011;24932;51.746;14.334;2022-12-18T17:04:40;53.13;;;19.67;;
39214;SDS011;24932;51.746;14.334;2022-12-18T17:08:40;51.37;;;19.93;;
39214;SDS011;24932;51.746;14.334;2022-12-18T17:12:40;52.8;;;19.33;;
39214;SDS011;24932;51.746;14.334;2022-12-18T17:16:40;51.1;;;17.73;;
39214;SDS011;24932;51.746;14.334;2022-12-18T17:20:40;43.4;;;15.6;;
39214;SDS011;24932;51.746;14.334;2022-12-18T17:24:40;58.8;;;19.8;;
39214;SDS011;24932;51.746;14.334;2022-12-18T17:28:40;57.9;;;16.97;;
39214;SDS011;24932;51.746;14.334;2022-12-18T17:32:40;56.8;;;19.13;;
39214;SDS011;24932;51.746;14.334;2022-12-18T17:36:40;58.5;;;19.5;;
39214;SDS011;24932;51.746;14.334;2022-12-18T17:40:46;51.1;;;17.43;;
39214;SDS011;24932;51.746;14.334;2022-12-18T17:44:41;57.3;;;17.57;;
39214;SDS011;24932;51.746;14.334;2022-12-18T17:48:40;52.57;;;18.03;;
39214;SDS011;24932;51.746;14.334;2022-12-18T17:52:40;41.87;;;17.4;;
39214;SDS011;24932;51.746;14.334;2022-12-18T17:56:41;46.83;;;16.9;;
39214;SDS011;24932;51.746;14.334;2022-12-18T18:00:40;51.83;;;17.6;;
39214;SDS011;24932;51.746;14.334;2022-12-18T18:04:40;51.33;;;17.27;;
39214;SDS011;24932;51.746;14.334;2022-12-18T18:08:40;50.07;;;17.57;;
39214;SDS011;24932;51.746;14.334;2022-12-18T18:12:40;55.57;;;17.33;;
39214;SDS011;24932;51.746;14.334;2022-12-18T18:16:41;47.6;;;17.37;;
39214;SDS011;24932;51.746;14.334;2022-12-18T18:20:40;56.87;;;21.5;;
39214;SDS011;24932;51.746;14.334;2022-12-18T18:24:40;58.63;;;20.67;;
39214;SDS011;24932;51.746;14.334;2022-12-18T18:28:40;51.1;;;17.77;;
39214;SDS011;24932;51.746;14.334;2022-12-18T18:32:41;65.93;;;22.43;;
39214;SDS011;24932;51.746;14.334;2022-12-18T18:36:40;56.67;;;20.3;;
39214;SDS011;24932;51.746;14.334;2022-12-18T18:40:40;60.4;;;20.37;;
39214;SDS011;24932;51.746;14.334;2022-12-18T18:44:47;61.53;;;19.57;;
39214;SDS011;24932;51.746;14.334;2022-12-18T18:48:44;52.53;;;17.6;;
39214;SDS011;24932;51.746;14.334;2022-12-18T18:52:42;44.73;;;16.87;;
39214;SDS011;24932;51.746;14.334;2022-12-18T18:57:19;67.73;;;21.8;;
39214;SDS011;24932;51.746;14.334;2022-12-18T19:00:40;55.6;;;17.67;;
39214;SDS011;24932;51.746;14.334;2022-12-18T19:04:47;53.5;;;18.5;;
39214;SDS011;24932;51.746;14.334;2022-12-18T19:08:41;49.0;;;17.63;;
39214;SDS011;24932;51.746;14.334;2022-12-18T19:12:40;53.47;;;18.33;;
39214;SDS011;24932;51.746;14.334;2022-12-18T19:16:41;54.07;;;17.63;;
39214;SDS011;24932;51.746;14.334;2022-12-18T19:20:40;60.53;;;18.6;;
39214;SDS011;24932;51.746;14.334;2022-12-18T19:24:40;62.8;;;20.47;;
39214;SDS011;24932;51.746;14.334;2022-12-18T19:28:41;45.87;;;16.93;;
39214;SDS011;24932;51.746;14.334;2022-12-18T19:32:40;47.83;;;17.13;;
39214;SDS011;24932;51.746;14.334;2022-12-18T19:36:41;42.07;;;17.07;;
39214;SDS011;24932;51.746;14.334;2022-12-18T19:40:41;60.5;;;19.17;;
39214;SDS011;24932;51.746;14.334;2022-12-18T19:44:40;55.27;;;17.6;;
39214;SDS011;24932;51.746;14.334;2022-12-18T19:48:42;45.8;;;16.07;;
39214;SDS011;24932;51.746;14.334;2022-12-18T19:52:40;58.77;;;18.77;;
39214;SDS011;24932;51.746;14.334;2022-12-18T19:56:40;50.27;;;17.67;;
39214;SDS011;24932;51.746;14.334;2022-12-18T20:00:40;52.73;;;18.8;;
39214;SDS011;24932;51.746;14.334;2022-12-18T20:04:40;51.83;;;16.0;;
39214;SDS011;24932;51.746;14.334;2022-12-18T20:08:40;30.6;;;11.93;;
39214;SDS011;24932;51.746;14.334;2022-12-18T20:12:40;40.03;;;17.33;;
39214;SDS011;24932;51.746;14.334;2022-12-18T20:16:40;51.57;;;16.0;;
39214;SDS011;24932;51.746;14.334;2022-12-18T20:20:41;38.03;;;15.37;;
39214;SDS011;24932;51.746;14.334;2022-12-18T20:24:40;39.77;;;14.8;;
39214;SDS011;24932;51.746;14.334;2022-12-18T20:28:40;37.2;;;15.07;;
39214;SDS011;24932;51.746;14.334;2022-12-18T20:32:41;39.7;;;13.73;;
39214;SDS011;24932;51.746;14.334;2022-12-18T20:36:41;39.83;;;14.27;;
39214;SDS011;24932;51.746;14.334;2022-12-18T20:40:40;39.13;;;14.23;;
39214;SDS011;24932;51.746;14.334;2022-12-18T20:44:40;41.37;;;15.9;;
39214;SDS011;24932;51.746;14.334;2022-12-18T20:48:41;34.07;;;12.13;;
39214;SDS011;24932;51.746;14.334;2022-12-18T20:52:40;36.07;;;13.63;;
39214;SDS011;24932;51.746;14.334;2022-12-18T20:56:40;32.47;;;12.07;;
39214;SDS011;24932;51.746;14.334;2022-12-18T21:00:40;46.0;;;16.43;;
39214;SDS011;24932;51.746;14.334;2022-12-18T21:04:40;41.33;;;16.57;;
39214;SDS011;24932;51.746;14.334;2022-12-18T21:08:40;32.63;;;12.27;;
39214;SDS011;24932;51.746;14.334;2022-12-18T21:13:00;29.7;;;11.83;;
39214;SDS011;24932;51.746;14.334;2022-12-18T21:16:41;32.27;;;12.1;;
39214;SDS011;24932;51.746;14.334;2022-12-18T21:20:41;28.27;;;11.2;;
39214;SDS011;24932;51.746;14.334;2022-12-18T21:24:40;36.87;;;11.77;;
39214;SDS011;24932;51.746;14.334;2022-12-18T21:28:40;27.2;;;10.73;;
39214;SDS011;24932;51.746;14.334;2022-12-18T21:32:40;35.1;;;11.97;;
39214;SDS011;24932;51.746;14.334;2022-12-18T21:36:40;37.8;;;13.8;;
39214;SDS011;24932;51.746;14.334;2022-12-18T21:40:41;30.87;;;12.6;;
39214;SDS011;24932;51.746;14.334;2022-12-18T21:44:42;32.77;;;11.97;;
39214;SDS011;24932;51.746;14.334;2022-12-18T21:48:40;27.63;;;10.7;;
39214;SDS011;24932;51.746;14.334;2022-12-18T21:52:40;28.3;;;11.97;;
39214;SDS011;24932;51.746;14.334;2022-12-18T21:56:42;27.9;;;10.17;;
39214;SDS011;24932;51.746;14.334;2022-12-18T22:00:48;29.4;;;10.93;;
39214;SDS011;24932;51.746;14.334;2022-12-18T22:04:40;28.7;;;11.03;;
39214;SDS011;24932;51.746;14.334;2022-12-18T22:08:44;19.63;;;8.57;;
39214;SDS011;24932;51.746;14.334;2022-12-18T22:12:44;29.1;;;9.0;;
39214;SDS011;24932;51.746;14.334;2022-12-18T22:16:41;22.03;;;10.43;;
39214;SDS011;24932;51.746;14.334;2022-12-18T22:20:40;25.13;;;9.53;;
39214;SDS011;24932;51.746;14.334;2022-12-18T22:24:40;28.03;;;10.73;;
39214;SDS011;24932;51.746;14.334;2022-12-18T22:28:40;26.07;;;9.83;;
39214;SDS011;24932;51.746;14.334;2022-12-18T22:32:40;22.83;;;7.5;;
39214;SDS011;24932;51.746;14.334;2022-12-18T22:36:41;21.37;;;8.57;;
39214;SDS011;24932;51.746;14.334;2022-12-18T22:40:40;20.57;;;8.33;;
39214;SDS011;24932;51.746;14.334;2022-12-18T22:44:40;21.5;;;7.07;;
39214;SDS011;24932;51.746;14.334;2022-12-18T22:48:41;20.03;;;7.8;;
39214;SDS011;24932;51.746;14.334;2022-12-18T22:52:40;20.97;;;8.87;;
39214;SDS011;24932;51.746;14.334;2022-12-18T22:56:40;16.47;;;6.43;;
39214;SDS011;24932;51.746;14.334;2022-12-18T23:00:40;20.27;;;7.9;;
39214;SDS011;24932;51.746;14.334;2022-12-18T23:16:42;26.57;;;12.33;;
39214;SDS011;24932;51.746;14.334;2022-12-18T23:20:41;24.4;;;9.8;;
39214;SDS011;24932;51.746;14.334;2022-12-18T23:24:40;21.93;;;10.0;;
39214;SDS011;24932;51.746;14.334;2022-12-18T23:28:40;34.33;;;13.77;;
39214;SDS011;24932;51.746;14.334;2022-12-18T23:32:41;37.27;;;13.47;;
39214;SDS011;24932;51.746;14.334;2022-12-18T23:36:46;32.37;;;13.5;;